Time;durP1;ratioP1;P1;durP2;ratioP2;P2;SDS_P1;SDS_P2;PMS_P1;PMS_P2;Temp;Humidity;BMP_temperature;BMP_pressure;BME280_temperature;BME280_humidity;BME280_pressure;Samples;Min_cycle;Max_cycle;Signal;HPM_P1;HPM_P2
2024/04/08 00:01:12;;;;;;;3.83;2.00;;;15.10;99.90;;;;;;5019232;28;20476;-61
2024/04/08 00:03:39;;;;;;;3.47;2.20;;;15.00;99.90;;;;;;5016399;28;20491;-61
2024/04/08 00:06:05;;;;;;;3.23;1.90;;;15.00;99.90;;;;;;5021104;28;20490;-61
2024/04/08 00:08:32;;;;;;;2.93;1.67;;;15.00;99.90;;;;;;5016561;28;20472;-61
2024/04/08 00:11:04;;;;;;;3.77;1.77;;;15.00;99.90;;;;;;5017884;28;20531;-61
2024/04/08 00:13:33;;;;;;;2.37;1.97;;;15.00;99.90;;;;;;5016687;28;20471;-59
2024/04/08 00:16:01;;;;;;;5.30;2.10;;;15.00;99.90;;;;;;5017006;28;20480;-61
2024/04/08 00:18:28;;;;;;;4.10;2.13;;;14.90;99.90;;;;;;5019882;28;20978;-61
2024/04/08 00:21:02;;;;;;;5.10;1.90;;;14.80;99.90;;;;;;5016805;28;21050;-61
2024/04/08 00:23:29;;;;;;;4.97;2.30;;;14.80;99.90;;;;;;5021912;28;21047;-61
2024/04/08 00:25:55;;;;;;;2.17;1.53;;;14.80;99.90;;;;;;5024984;28;20506;-61
2024/04/08 00:28:22;;;;;;;2.40;1.83;;;14.80;99.90;;;;;;5022634;28;20533;-59
2024/04/08 00:30:48;;;;;;;1.93;1.47;;;14.80;99.90;;;;;;5021794;28;20960;-61
2024/04/08 00:33:17;;;;;;;2.40;1.73;;;14.80;99.90;;;;;;5039874;28;20493;-61
2024/04/08 00:35:43;;;;;;;3.47;1.70;;;14.70;99.90;;;;;;5036588;28;20491;-61
2024/04/08 00:38:10;;;;;;;2.70;1.97;;;14.70;99.90;;;;;;5035165;28;20463;-61
2024/04/08 00:40:37;;;;;;;4.20;1.93;;;14.70;99.90;;;;;;5031941;28;21120;-61
2024/04/08 00:43:07;;;;;;;3.87;1.83;;;14.60;99.90;;;;;;5013759;28;20499;-61
2024/04/08 00:45:35;;;;;;;2.00;1.80;;;14.60;99.90;;;;;;5013738;28;21170;-61
2024/04/08 00:48:02;;;;;;;4.13;1.80;;;14.60;99.90;;;;;;5013560;28;20478;-61
2024/04/08 00:50:30;;;;;;;4.87;2.10;;;14.60;99.90;;;;;;5010279;28;20953;-61
2024/04/08 00:52:57;;;;;;;4.40;1.83;;;14.50;99.90;;;;;;5012244;28;20479;-60
2024/04/08 00:55:24;;;;;;;2.63;1.90;;;14.40;99.90;;;;;;5017484;28;20545;-61
2024/04/08 00:57:51;;;;;;;3.07;1.97;;;14.40;99.90;;;;;;5010766;28;20514;-61
2024/04/08 01:00:17;;;;;;;3.27;2.00;;;14.40;99.90;;;;;;5012187;28;20473;-60
2024/04/08 01:02:44;;;;;;;3.80;1.97;;;14.40;99.90;;;;;;5010102;28;20499;-60
2024/04/08 01:05:13;;;;;;;2.77;2.30;;;14.30;99.90;;;;;;5010988;28;20905;-61
2024/04/08 01:07:43;;;;;;;3.90;2.20;;;14.30;99.90;;;;;;5013336;28;20475;-61
2024/04/08 01:10:09;;;;;;;3.67;2.33;;;14.30;99.90;;;;;;5013709;28;20498;-61
2024/04/08 01:12:36;;;;;;;2.67;1.90;;;14.30;99.90;;;;;;5011026;28;20490;-61
2024/04/08 01:15:03;;;;;;;2.97;2.00;;;14.30;99.90;;;;;;5013018;28;20507;-61
2024/04/08 01:17:30;;;;;;;3.70;2.23;;;14.20;99.90;;;;;;5014632;28;20467;-61
2024/04/08 01:19:56;;;;;;;3.23;2.10;;;14.20;99.90;;;;;;5012510;28;20501;-61
2024/04/08 01:22:23;;;;;;;4.97;2.73;;;14.20;99.90;;;;;;5015281;28;20491;-61
2024/04/08 01:24:51;;;;;;;3.83;2.10;;;14.20;99.90;;;;;;5015142;28;20538;-61
2024/04/08 01:27:18;;;;;;;2.27;1.90;;;14.20;99.90;;;;;;5014261;28;20471;-61
2024/04/08 01:29:44;;;;;;;2.87;2.00;;;14.20;99.90;;;;;;5010526;28;20478;-61
2024/04/08 01:32:11;;;;;;;1.80;1.70;;;14.20;99.90;;;;;;5016972;28;20590;-60
2024/04/08 01:34:37;;;;;;;2.93;2.27;;;14.20;99.90;;;;;;5023011;28;20488;-61
2024/04/08 01:37:04;;;;;;;2.20;1.77;;;14.20;99.90;;;;;;5018067;28;20478;-61
2024/04/08 01:39:30;;;;;;;3.90;1.97;;;14.20;99.90;;;;;;5023823;28;20459;-61
2024/04/08 01:41:59;;;;;;;2.07;1.70;;;14.20;99.90;;;;;;5015317;28;20533;-61
2024/04/08 01:44:25;;;;;;;2.10;1.70;;;14.20;99.90;;;;;;5022295;28;20487;-61
2024/04/08 01:46:52;;;;;;;3.17;2.03;;;14.20;99.90;;;;;;5023414;28;20467;-61
2024/04/08 01:49:18;;;;;;;2.47;1.80;;;14.20;99.90;;;;;;5021634;28;20467;-60
2024/04/08 01:51:45;;;;;;;2.90;2.00;;;14.20;99.90;;;;;;5014954;28;21033;-61
2024/04/08 01:54:12;;;;;;;1.83;1.47;;;14.10;99.90;;;;;;5020839;28;20491;-61
2024/04/08 01:56:39;;;;;;;4.43;2.00;;;14.10;99.90;;;;;;5021478;28;20493;-61
2024/04/08 01:59:06;;;;;;;2.00;1.60;;;14.10;99.90;;;;;;5019192;28;20467;-61
2024/04/08 02:01:33;;;;;;;2.83;2.10;;;14.10;99.90;;;;;;5017575;28;20471;-61
2024/04/08 02:03:59;;;;;;;4.60;2.30;;;14.10;99.90;;;;;;5020222;28;20495;-61
2024/04/08 02:06:27;;;;;;;3.50;2.10;;;14.10;99.90;;;;;;5021634;28;20471;-61
2024/04/08 02:08:53;;;;;;;5.20;2.13;;;14.10;99.90;;;;;;5019556;28;20468;-61
2024/04/08 02:11:20;;;;;;;2.67;1.87;;;14.10;99.90;;;;;;5018397;28;21018;-61
2024/04/08 02:13:46;;;;;;;3.27;2.00;;;14.10;99.90;;;;;;5017218;28;20506;-61
2024/04/08 02:16:14;;;;;;;3.20;2.03;;;14.10;99.90;;;;;;5019586;28;20471;-61
2024/04/08 02:18:41;;;;;;;2.43;1.93;;;14.10;99.90;;;;;;5017715;28;20478;-60
2024/04/08 02:21:12;;;;;;;2.80;2.30;;;14.00;99.90;;;;;;5019948;28;20849;-60
2024/04/08 02:23:38;;;;;;;2.67;1.80;;;14.10;99.90;;;;;;5020033;28;21003;-61
2024/04/08 02:26:05;;;;;;;3.27;2.20;;;14.00;99.90;;;;;;5012613;28;20599;-61
2024/04/08 02:28:34;;;;;;;4.43;2.50;;;14.10;99.90;;;;;;5019613;28;20468;-61
2024/04/08 02:31:02;;;;;;;2.43;1.97;;;14.00;99.90;;;;;;5014960;28;20474;-61
2024/04/08 02:33:29;;;;;;;2.40;2.20;;;14.00;99.90;;;;;;5021522;28;20479;-61
2024/04/08 02:36:02;;;;;;;3.73;2.50;;;14.00;99.90;;;;;;5021692;28;20471;-61
2024/04/08 02:38:28;;;;;;;3.00;2.20;;;14.10;99.90;;;;;;5014548;28;20468;-61
2024/04/08 02:40:55;;;;;;;2.83;2.40;;;14.10;99.90;;;;;;5017879;28;20605;-60
2024/04/08 02:43:23;;;;;;;2.83;2.53;;;14.10;99.90;;;;;;5042389;28;21017;-61
2024/04/08 02:45:50;;;;;;;3.43;2.63;;;14.00;99.90;;;;;;5040255;28;20489;-61
2024/04/08 02:48:18;;;;;;;2.67;2.33;;;14.00;99.90;;;;;;5041530;28;20475;-61
2024/04/08 02:50:47;;;;;;;3.07;2.77;;;14.00;99.90;;;;;;5040355;28;20894;-61
2024/04/08 02:53:13;;;;;;;3.63;2.73;;;14.00;99.90;;;;;;5019698;28;20479;-60
2024/04/08 02:55:40;;;;;;;4.03;2.70;;;14.00;99.90;;;;;;5019250;28;21011;-60
2024/04/08 02:58:06;;;;;;;4.87;3.77;;;14.00;99.90;;;;;;5011681;28;20471;-61
2024/04/08 03:00:38;;;;;;;3.13;2.93;;;13.90;99.90;;;;;;5020499;28;20837;-61
2024/04/08 03:03:04;;;;;;;4.53;3.50;;;13.90;99.90;;;;;;5014544;28;20487;-60
2024/04/08 03:05:31;;;;;;;4.23;3.17;;;14.00;99.90;;;;;;5019561;28;20483;-61
2024/04/08 03:07:58;;;;;;;4.10;3.70;;;14.00;99.90;;;;;;5013713;28;20502;-61
2024/04/08 03:10:26;;;;;;;4.60;3.80;;;14.00;99.90;;;;;;5013105;28;20771;-61
2024/04/08 03:12:53;;;;;;;4.17;3.57;;;14.00;99.90;;;;;;5021376;28;20498;-60
2024/04/08 03:15:20;;;;;;;4.37;3.80;;;14.00;99.90;;;;;;5018582;28;21019;-61
2024/04/08 03:17:46;;;;;;;4.50;4.10;;;14.00;99.90;;;;;;5025397;28;20478;-61
2024/04/08 03:20:13;;;;;;;3.87;3.47;;;13.90;99.90;;;;;;5019715;28;20487;-60
2024/04/08 03:24:34;;;;;;;4.50;4.03;;;13.90;99.90;;;;;;5386284;26;20589;-59
2024/04/08 03:27:01;;;;;;;7.50;4.57;;;13.90;99.90;;;;;;5385901;26;20471;-60
2024/04/08 03:29:31;;;;;;;4.80;3.87;;;13.90;99.90;;;;;;5384889;26;20467;-60
2024/04/08 03:31:58;;;;;;;5.00;4.60;;;13.90;99.90;;;;;;5342180;26;20501;-60
2024/04/08 03:34:28;;;;;;;5.10;3.90;;;13.90;99.90;;;;;;5319475;26;20482;-60
2024/04/08 03:36:58;;;;;;;4.70;4.30;;;13.90;99.90;;;;;;5314409;26;20519;-60
2024/04/08 03:39:27;;;;;;;5.00;4.17;;;13.90;99.90;;;;;;5308157;26;20562;-60
2024/04/08 03:42:00;;;;;;;4.83;4.00;;;13.80;99.90;;;;;;5304052;26;20557;-60
2024/04/08 03:44:29;;;;;;;4.70;4.13;;;13.80;99.90;;;;;;5316757;26;20581;-60
2024/04/08 03:46:59;;;;;;;7.20;4.47;;;13.80;99.90;;;;;;5315565;26;20597;-60
2024/04/08 03:49:26;;;;;;;5.93;5.00;;;13.80;99.90;;;;;;5315125;26;20474;-59
2024/04/08 03:51:56;;;;;;;5.07;4.20;;;13.80;99.90;;;;;;5289434;26;20547;-60
2024/04/08 03:54:23;;;;;;;5.23;4.63;;;13.80;99.90;;;;;;5280936;27;20556;-60
2024/04/08 03:56:53;;;;;;;5.57;4.33;;;13.80;99.90;;;;;;5283061;27;21001;-60
2024/04/08 03:59:23;;;;;;;5.03;4.40;;;13.80;99.90;;;;;;5275325;27;20480;-60
2024/04/08 04:01:52;;;;;;;4.73;4.13;;;13.80;99.90;;;;;;5275598;26;20499;-59
2024/04/08 04:04:20;;;;;;;4.20;3.80;;;13.80;99.90;;;;;;5279822;27;20484;-60
2024/04/08 04:06:49;;;;;;;5.13;4.63;;;13.80;99.90;;;;;;5284312;27;20472;-60
2024/04/08 04:09:17;;;;;;;4.60;4.00;;;13.80;99.90;;;;;;5278904;27;20544;-60
2024/04/08 04:11:46;;;;;;;5.20;4.70;;;13.80;99.90;;;;;;5273419;26;20507;-60
2024/04/08 04:14:13;;;;;;;5.87;4.30;;;13.70;99.90;;;;;;5284090;27;20603;-60
2024/04/08 04:16:47;;;;;;;4.87;3.93;;;13.80;99.90;;;;;;5278158;27;20496;-60
2024/04/08 04:19:14;;;;;;;4.60;4.20;;;13.80;99.90;;;;;;5277889;27;20540;-60
2024/04/08 04:21:44;;;;;;;3.97;3.57;;;13.80;99.90;;;;;;5277133;26;20631;-60
2024/04/08 04:24:11;;;;;;;8.00;4.63;;;13.80;99.90;;;;;;5277511;27;20636;-60
2024/04/08 04:26:41;;;;;;;5.03;4.40;;;13.80;99.90;;;;;;5283979;27;20536;-60
2024/04/08 04:29:08;;;;;;;5.43;3.83;;;13.80;99.90;;;;;;5283336;27;20485;-60
2024/04/08 04:31:47;;;;;;;4.47;4.10;;;13.80;99.90;;;;;;5270449;26;20497;-60
2024/04/08 04:34:14;;;;;;;6.80;5.00;;;13.80;99.90;;;;;;5273520;27;20530;-60
2024/04/08 04:36:44;;;;;;;5.93;4.57;;;13.80;99.90;;;;;;5265351;27;20607;-59
2024/04/08 04:39:11;;;;;;;7.23;5.27;;;13.80;99.90;;;;;;5257511;27;20494;-60
2024/04/08 04:41:41;;;;;;;5.90;5.30;;;13.80;99.90;;;;;;5257597;26;21036;-60
2024/04/08 04:44:08;;;;;;;6.40;5.80;;;13.80;99.90;;;;;;5266108;27;20476;-60
2024/04/08 04:46:38;;;;;;;6.97;6.27;;;13.80;99.90;;;;;;5265752;27;20476;-59
2024/04/08 04:49:08;;;;;;;5.73;5.23;;;13.80;99.90;;;;;;5263173;27;20549;-60
2024/04/08 04:51:38;;;;;;;6.07;5.47;;;13.80;99.90;;;;;;5254110;26;20548;-60
2024/04/08 04:54:05;;;;;;;6.40;5.80;;;13.80;99.90;;;;;;5258491;27;21282;-60
2024/04/08 04:56:35;;;;;;;6.27;5.67;;;13.80;99.90;;;;;;5263259;27;20488;-60
2024/04/08 04:59:02;;;;;;;6.10;5.30;;;13.80;99.90;;;;;;5258737;27;20610;-60
2024/04/08 05:01:32;;;;;;;6.83;5.50;;;13.80;99.90;;;;;;5259323;26;20548;-60
2024/04/08 05:03:59;;;;;;;6.43;5.73;;;13.80;99.90;;;;;;5254490;27;20503;-60
2024/04/08 05:06:32;;;;;;;7.37;6.63;;;13.70;99.90;;;;;;5258734;27;20489;-60
2024/04/08 05:08:59;;;;;;;7.20;6.53;;;13.70;99.90;;;;;;5262054;27;20469;-60
2024/04/08 05:11:29;;;;;;;6.83;6.13;;;13.70;99.90;;;;;;5259570;27;20544;-60
2024/04/08 05:13:57;;;;;;;7.67;6.90;;;13.70;99.90;;;;;;5284261;26;21095;-60
2024/04/08 05:16:26;;;;;;;7.77;7.03;;;13.70;99.90;;;;;;5276007;26;20525;-60
2024/04/08 05:18:54;;;;;;;8.63;7.63;;;13.80;99.90;;;;;;5272517;26;20547;-59
2024/04/08 05:21:24;;;;;;;11.00;8.40;;;13.80;99.90;;;;;;5279464;26;20506;-59
2024/04/08 05:23:54;;;;;;;9.93;8.27;;;13.80;99.90;;;;;;5280968;26;20927;-61
2024/04/08 05:26:26;;;;;;;9.50;8.60;;;13.80;99.90;;;;;;5274966;26;20483;-59
2024/04/08 05:28:53;;;;;;;8.53;7.63;;;13.80;99.90;;;;;;5278638;26;20496;-60
2024/04/08 05:31:23;;;;;;;10.20;8.77;;;13.80;99.90;;;;;;5279300;26;20506;-61
2024/04/08 05:33:50;;;;;;;9.07;8.17;;;13.70;99.90;;;;;;5283937;26;20553;-60
2024/04/08 05:36:19;;;;;;;8.17;7.37;;;13.70;99.90;;;;;;5278970;26;20561;-60
2024/04/08 05:38:47;;;;;;;10.90;8.40;;;13.70;99.90;;;;;;5284320;26;20491;-60
2024/04/08 05:41:20;;;;;;;9.37;8.37;;;13.70;99.90;;;;;;5275804;26;20878;-60
2024/04/08 05:43:47;;;;;;;9.53;8.53;;;13.70;99.90;;;;;;5287290;26;20530;-60
2024/04/08 05:46:18;;;;;;;11.30;9.37;;;13.70;99.90;;;;;;5285683;26;20456;-60
2024/04/08 05:48:45;;;;;;;8.97;8.07;;;13.70;99.90;;;;;;5285161;26;20487;-60
2024/04/08 05:51:15;;;;;;;10.00;9.00;;;13.70;99.90;;;;;;5287715;26;20527;-60
2024/04/08 05:53:42;;;;;;;12.80;11.13;;;13.70;99.90;;;;;;5290706;26;20471;-60
2024/04/08 05:56:12;;;;;;;13.30;11.90;;;13.70;99.90;;;;;;5285645;26;21232;-60
2024/04/08 05:58:41;;;;;;;14.40;12.60;;;13.70;99.90;;;;;;5291574;26;20491;-60
2024/04/08 06:01:11;;;;;;;13.10;11.43;;;13.70;99.90;;;;;;5288325;26;20532;-60
2024/04/08 06:03:39;;;;;;;13.30;10.80;;;13.70;99.90;;;;;;5292845;27;20479;-60
2024/04/08 06:06:09;;;;;;;12.27;11.07;;;13.60;99.90;;;;;;5288817;26;20547;-60
2024/04/08 06:08:36;;;;;;;11.80;10.43;;;13.70;99.90;;;;;;5284793;26;20830;-60
2024/04/08 06:11:06;;;;;;;11.23;9.47;;;13.70;99.90;;;;;;5289925;26;20479;-60
2024/04/08 06:13:33;;;;;;;9.97;9.07;;;13.70;99.90;;;;;;5293801;26;20479;-59
2024/04/08 06:16:08;;;;;;;9.20;8.30;;;13.70;99.90;;;;;;5290956;26;21754;-60
2024/04/08 06:18:35;;;;;;;7.80;7.00;;;13.70;99.90;;;;;;5292379;26;20466;-60
2024/04/08 06:21:05;;;;;;;6.27;5.67;;;13.70;99.90;;;;;;5300671;26;20490;-60
2024/04/08 06:23:32;;;;;;;6.07;5.57;;;13.80;99.90;;;;;;5301173;26;20481;-59
2024/04/08 06:26:02;;;;;;;6.83;5.10;;;13.80;99.90;;;;;;5291316;26;20547;-61
2024/04/08 06:28:30;;;;;;;5.97;4.70;;;13.80;99.90;;;;;;5288038;26;20540;-60
2024/04/08 06:31:01;;;;;;;5.33;4.87;;;13.80;99.90;;;;;;5291083;26;20568;-60
2024/04/08 06:33:32;;;;;;;5.43;4.20;;;13.90;99.90;;;;;;5290451;26;20523;-60
2024/04/08 06:36:02;;;;;;;4.27;3.87;;;13.90;99.90;;;;;;5289701;26;20602;-61
2024/04/08 06:38:29;;;;;;;5.13;4.00;;;13.90;99.90;;;;;;5289286;26;20490;-59
2024/04/08 06:40:59;;;;;;;3.77;3.30;;;14.00;99.90;;;;;;5289105;26;21038;-61
2024/04/08 06:43:26;;;;;;;3.83;3.07;;;14.00;99.90;;;;;;5289057;26;20494;-60
2024/04/08 06:46:00;;;;;;;5.30;3.40;;;14.00;99.90;;;;;;5292517;26;20498;-60
2024/04/08 06:48:27;;;;;;;4.13;2.80;;;14.00;99.90;;;;;;5292148;26;20499;-60
2024/04/08 06:51:00;;;;;;;4.80;3.10;;;14.00;99.90;;;;;;5290534;26;20483;-59
2024/04/08 06:53:27;;;;;;;6.00;3.63;;;13.90;99.90;;;;;;5291336;26;21151;-60
2024/04/08 06:55:57;;;;;;;3.80;3.30;;;13.90;99.90;;;;;;5295961;26;20483;-60
2024/04/08 06:58:24;;;;;;;5.17;4.13;;;13.90;99.90;;;;;;5284735;26;20543;-60
2024/04/08 07:00:54;;;;;;;3.90;3.10;;;14.00;99.90;;;;;;5295362;26;20475;-61
2024/04/08 07:03:21;;;;;;;4.63;3.00;;;14.00;99.90;;;;;;5298288;26;20963;-59
2024/04/08 07:05:51;;;;;;;3.30;3.00;;;14.00;99.90;;;;;;5291774;26;20610;-61
2024/04/08 07:08:21;;;;;;;3.23;2.93;;;14.10;99.90;;;;;;5290111;26;20483;-61
2024/04/08 07:10:51;;;;;;;4.60;2.77;;;14.00;99.90;;;;;;5291964;26;20537;-60
2024/04/08 07:13:18;;;;;;;3.30;3.00;;;14.10;99.90;;;;;;5293272;26;20596;-61
2024/04/08 07:15:55;;;;;;;5.40;2.20;;;14.20;99.90;;;;;;5287412;26;21405;-60
2024/04/08 07:18:22;;;;;;;2.70;2.50;;;14.20;99.90;;;;;;5291665;26;20482;-60
2024/04/08 07:20:52;;;;;;;3.50;2.73;;;14.20;99.90;;;;;;5291077;26;20487;-61
2024/04/08 07:23:22;;;;;;;3.33;3.03;;;14.20;99.90;;;;;;5287288;26;20605;-60
2024/04/08 07:25:52;;;;;;;7.23;3.23;;;14.20;99.90;;;;;;5291608;26;21147;-60
2024/04/08 07:28:20;;;;;;;2.37;2.17;;;14.30;99.90;;;;;;5290367;26;20647;-58
2024/04/08 07:30:50;;;;;;;3.40;2.40;;;14.30;99.90;;;;;;5288678;26;20487;-59
2024/04/08 07:33:17;;;;;;;2.50;2.30;;;14.40;99.90;;;;;;5283314;26;21179;-60
2024/04/08 07:35:47;;;;;;;2.87;2.40;;;14.40;99.90;;;;;;5291507;26;20550;-60
2024/04/08 07:38:14;;;;;;;2.90;2.27;;;14.50;99.90;;;;;;5288977;26;20857;-59
2024/04/08 07:40:47;;;;;;;2.47;2.20;;;14.50;99.90;;;;;;5293397;26;20479;-60
2024/04/08 07:43:14;;;;;;;3.60;2.20;;;14.60;99.90;;;;;;5288767;26;20587;-60
2024/04/08 07:45:44;;;;;;;3.30;2.30;;;14.60;99.90;;;;;;5300243;26;21043;-60
2024/04/08 07:48:12;;;;;;;4.80;2.33;;;14.60;99.90;;;;;;5298833;26;20586;-60
2024/04/08 07:50:42;;;;;;;2.47;2.27;;;14.70;99.90;;;;;;5298337;26;20598;-60
2024/04/08 07:53:10;;;;;;;4.80;2.80;;;14.70;99.90;;;;;;5289292;26;20566;-60
2024/04/08 07:55:41;;;;;;;4.07;2.10;;;14.70;99.90;;;;;;5286138;26;20533;-60
2024/04/08 07:58:11;;;;;;;2.70;2.00;;;14.70;99.90;;;;;;5287093;26;20536;-60
2024/04/08 08:00:40;;;;;;;4.27;2.40;;;14.80;99.90;;;;;;5295191;26;21024;-60
2024/04/08 08:03:14;;;;;;;3.83;2.20;;;14.90;99.90;;;;;;5294420;26;20544;-61
2024/04/08 08:05:44;;;;;;;3.03;2.50;;;14.90;99.90;;;;;;5290013;26;20486;-60
2024/04/08 08:08:14;;;;;;;4.13;2.57;;;14.90;99.90;;;;;;5288712;26;20538;-60
2024/04/08 08:10:45;;;;;;;2.90;2.23;;;15.00;99.90;;;;;;5289553;26;20462;-60
2024/04/08 08:13:17;;;;;;;2.73;2.40;;;15.00;99.90;;;;;;5290408;26;20494;-60
2024/04/08 08:15:56;;;;;;;3.07;1.90;;;15.10;99.90;;;;;;5294111;26;20490;-59
2024/04/08 08:18:26;;;;;;;2.67;1.70;;;15.20;99.90;;;;;;5293722;26;20462;-60
2024/04/08 08:20:57;;;;;;;2.50;1.90;;;15.30;99.90;;;;;;5287325;26;20565;-61
2024/04/08 08:23:27;;;;;;;2.47;1.67;;;15.30;99.90;;;;;;5279753;26;20498;-60
2024/04/08 08:25:58;;;;;;;3.87;1.70;;;15.40;99.90;;;;;;5292620;26;20646;-59
2024/04/08 08:28:30;;;;;;;1.70;1.60;;;15.50;99.90;;;;;;5293703;26;20479;-60
2024/04/08 08:30:57;;;;;;;5.00;2.10;;;15.50;99.90;;;;;;5286445;26;20494;-60
2024/04/08 08:33:27;;;;;;;3.67;1.67;;;15.50;99.90;;;;;;5297842;26;21035;-60
2024/04/08 08:35:54;;;;;;;2.10;1.70;;;15.60;99.90;;;;;;5289239;26;20554;-60
2024/04/08 08:38:24;;;;;;;2.43;1.77;;;15.70;99.90;;;;;;5289594;26;20550;-61
2024/04/08 08:40:58;;;;;;;3.33;1.83;;;15.70;99.90;;;;;;5291224;26;20547;-61
2024/04/08 08:43:32;;;;;;;2.57;1.70;;;15.80;99.90;;;;;;5281345;26;20545;-60
2024/04/08 08:46:02;;;;;;;2.70;1.60;;;15.80;99.90;;;;;;5294254;26;21039;-60
2024/04/08 08:48:30;;;;;;;4.90;1.20;;;15.90;99.90;;;;;;5296445;26;20570;-60
2024/04/08 08:51:00;;;;;;;2.50;1.30;;;15.90;99.90;;;;;;5286442;26;20550;-58
2024/04/08 08:53:28;;;;;;;3.37;1.40;;;16.00;99.90;;;;;;5293702;26;20479;-60
2024/04/08 08:56:00;;;;;;;2.23;1.30;;;16.10;99.90;;;;;;5298355;26;20535;-60
2024/04/08 08:58:30;;;;;;;2.07;1.43;;;16.20;99.90;;;;;;5289685;26;21273;-61
2024/04/08 09:01:00;;;;;;;1.97;1.13;;;16.20;99.90;;;;;;5288430;26;21047;-59
2024/04/08 09:03:33;;;;;;;2.00;1.27;;;16.40;99.90;;;;;;5284451;26;20471;-61
2024/04/08 09:06:03;;;;;;;2.03;1.27;;;16.40;99.90;;;;;;5293015;26;20483;-61
2024/04/08 09:08:32;;;;;;;2.23;1.30;;;16.50;99.90;;;;;;5283482;26;20892;-60
2024/04/08 09:11:09;;;;;;;1.17;1.00;;;16.50;99.90;;;;;;5283400;26;20546;-60
2024/04/08 09:13:42;;;;;;;2.80;1.40;;;16.70;99.90;;;;;;5287853;26;20533;-61
2024/04/08 09:16:10;;;;;;;2.27;1.30;;;16.70;99.90;;;;;;5294275;26;20483;-60
2024/04/08 09:18:39;;;;;;;2.37;1.00;;;16.70;99.90;;;;;;5289579;26;20483;-60
2024/04/08 09:21:07;;;;;;;1.53;1.00;;;16.80;99.90;;;;;;5291621;26;20491;-61
2024/04/08 09:23:42;;;;;;;2.63;1.37;;;16.90;99.90;;;;;;5293296;26;20880;-60
2024/04/08 09:26:09;;;;;;;3.53;1.40;;;17.00;99.90;;;;;;5288519;26;20565;-59
2024/04/08 09:28:41;;;;;;;2.00;1.80;;;17.20;99.90;;;;;;5285291;26;20487;-60
2024/04/08 09:31:09;;;;;;;3.20;1.27;;;17.30;99.90;;;;;;5288306;26;20483;-61
2024/04/08 09:33:39;;;;;;;3.00;1.63;;;17.40;99.90;;;;;;5292093;26;20486;-61
2024/04/08 09:36:08;;;;;;;2.50;1.40;;;17.40;99.90;;;;;;5287232;26;20483;-61
2024/04/08 09:38:38;;;;;;;2.97;1.57;;;17.50;99.90;;;;;;5285589;26;20487;-61
2024/04/08 09:41:06;;;;;;;2.23;1.20;;;17.50;99.90;;;;;;5289284;26;20574;-59
2024/04/08 09:43:36;;;;;;;2.80;1.53;;;17.50;99.90;;;;;;5294771;26;20469;-61
2024/04/08 09:46:09;;;;;;;1.20;1.10;;;17.50;99.90;;;;;;5291347;26;21417;-60
2024/04/08 09:48:40;;;;;;;1.47;1.10;;;17.40;99.90;;;;;;5289880;26;20495;-63
2024/04/08 09:51:08;;;;;;;1.27;1.17;;;17.40;99.90;;;;;;5290119;26;20539;-59
2024/04/08 09:53:38;;;;;;;2.20;1.60;;;17.50;99.90;;;;;;5289602;26;20567;-60
2024/04/08 09:56:15;;;;;;;3.63;1.30;;;17.50;99.90;;;;;;5292566;26;20490;-61
2024/04/08 09:58:56;;;;;;;2.00;1.50;;;17.50;99.90;;;;;;5290215;26;20871;-60
2024/04/08 10:01:27;;;;;;;3.30;1.40;;;17.60;99.90;;;;;;5291064;26;20605;-59
2024/04/08 10:04:02;;;;;;;2.83;1.30;;;17.60;99.90;;;;;;5289660;26;20482;-60
2024/04/08 10:06:29;;;;;;;2.40;1.70;;;17.60;99.90;;;;;;5288930;26;20550;-61
2024/04/08 10:09:00;;;;;;;4.23;1.73;;;17.60;99.90;;;;;;5279896;26;20610;-60
2024/04/08 10:11:27;;;;;;;3.07;1.33;;;17.60;99.90;;;;;;5289124;26;21310;-61
2024/04/08 10:13:57;;;;;;;1.80;1.47;;;17.80;99.90;;;;;;5291987;26;20531;-61
2024/04/08 10:16:27;;;;;;;2.80;1.60;;;17.90;99.90;;;;;;5290290;26;20515;-58
2024/04/08 10:18:58;;;;;;;3.30;1.57;;;18.00;99.90;;;;;;5289448;26;20603;-60
2024/04/08 10:21:26;;;;;;;2.47;1.57;;;18.00;99.90;;;;;;5290711;26;20487;-61
2024/04/08 10:23:58;;;;;;;3.10;1.60;;;18.10;99.90;;;;;;5291913;26;20506;-60
2024/04/08 10:26:26;;;;;;;2.97;1.70;;;18.20;99.90;;;;;;5287505;26;20479;-61
2024/04/08 10:28:56;;;;;;;2.10;1.90;;;18.30;99.90;;;;;;5291162;26;20565;-60
2024/04/08 10:31:30;;;;;;;5.00;1.97;;;18.30;99.90;;;;;;5291622;26;20495;-60
2024/04/08 10:34:00;;;;;;;2.77;1.60;;;18.20;99.90;;;;;;5289785;26;20483;-61
2024/04/08 10:36:27;;;;;;;2.07;1.50;;;18.30;99.90;;;;;;5282037;26;20530;-60
2024/04/08 10:38:57;;;;;;;3.40;1.63;;;18.30;99.90;;;;;;5284349;26;21070;-60
2024/04/08 10:41:24;;;;;;;4.73;2.03;;;18.30;99.90;;;;;;5291972;26;20483;-60
2024/04/08 10:43:54;;;;;;;5.90;1.80;;;18.30;99.90;;;;;;5287117;26;20490;-60
2024/04/08 10:46:21;;;;;;;2.77;2.00;;;18.40;99.90;;;;;;5288837;26;21420;-60
2024/04/08 10:48:54;;;;;;;3.13;1.87;;;18.40;99.90;;;;;;5290126;26;20538;-60
2024/04/08 10:51:21;;;;;;;4.70;1.70;;;18.40;99.90;;;;;;5286663;26;20837;-60
2024/04/08 10:53:53;;;;;;;3.93;2.13;;;18.30;99.90;;;;;;5291410;26;20845;-60
2024/04/08 10:56:21;;;;;;;2.33;1.90;;;18.30;99.90;;;;;;5285675;26;20479;-59
2024/04/08 10:58:52;;;;;;;2.90;2.10;;;18.30;99.90;;;;;;5292036;26;20539;-61
2024/04/08 11:01:20;;;;;;;3.70;1.60;;;18.40;99.90;;;;;;5290994;26;20548;-60
2024/04/08 11:03:50;;;;;;;2.93;2.10;;;18.50;99.90;;;;;;5292424;26;20487;-60
2024/04/08 11:06:20;;;;;;;3.17;1.97;;;18.70;99.90;;;;;;5293236;26;20475;-60
2024/04/08 11:08:53;;;;;;;2.90;2.00;;;18.80;99.90;;;;;;5288844;26;21030;-59
2024/04/08 11:11:23;;;;;;;3.33;1.73;;;18.90;99.90;;;;;;5289103;26;21039;-60
2024/04/08 11:13:53;;;;;;;3.03;1.77;;;19.10;99.90;;;;;;5289157;26;20486;-60
2024/04/08 11:16:21;;;;;;;3.70;1.63;;;19.20;99.90;;;;;;5286692;26;20531;-59
2024/04/08 11:18:52;;;;;;;2.57;1.83;;;19.40;99.90;;;;;;5292276;26;20482;-61
2024/04/08 11:21:21;;;;;;;2.60;1.60;;;19.60;99.90;;;;;;5288372;26;21119;-60
2024/04/08 11:23:51;;;;;;;1.30;1.20;;;19.70;99.90;;;;;;5292043;26;20479;-61
2024/04/08 11:26:19;;;;;;;2.10;1.63;;;19.70;99.90;;;;;;5283422;26;20487;-61
2024/04/08 11:28:48;;;;;;;3.90;1.70;;;19.80;99.90;;;;;;5282939;26;20494;-59
2024/04/08 11:31:18;;;;;;;2.20;1.70;;;19.90;99.90;;;;;;5275298;26;20504;-61
2024/04/08 11:33:45;;;;;;;1.70;1.60;;;20.00;99.90;;;;;;5292582;26;20571;-60
2024/04/08 11:36:16;;;;;;;3.57;1.80;;;20.10;99.90;;;;;;5285553;26;20469;-60
2024/04/08 11:38:46;;;;;;;2.00;1.77;;;20.10;99.90;;;;;;5281971;26;21350;-59
2024/04/08 11:41:16;;;;;;;2.93;1.30;;;20.10;99.90;;;;;;5277552;26;20539;-62
2024/04/08 11:43:43;;;;;;;1.63;1.40;;;20.00;99.90;;;;;;5282257;26;20490;-62
2024/04/08 11:46:14;;;;;;;1.87;1.37;;;20.10;99.90;;;;;;5285028;26;21176;-63
2024/04/08 11:48:45;;;;;;;3.23;1.63;;;20.10;99.90;;;;;;5286258;26;20499;-62
2024/04/08 11:51:15;;;;;;;2.03;1.40;;;20.20;99.90;;;;;;5289403;26;20840;-61
2024/04/08 11:53:45;;;;;;;2.20;1.50;;;20.30;99.90;;;;;;5291243;26;20483;-62
2024/04/08 11:56:15;;;;;;;5.00;1.50;;;20.30;99.90;;;;;;5300343;26;20526;-62
2024/04/08 11:58:42;;;;;;;2.80;1.40;;;20.40;99.90;;;;;;5297329;26;20486;-62
2024/04/08 12:01:12;;;;;;;3.50;1.73;;;20.40;99.90;;;;;;5299175;26;20482;-62
2024/04/08 12:03:40;;;;;;;2.00;1.37;;;20.50;99.90;;;;;;5300849;26;20478;-62
2024/04/08 12:06:11;;;;;;;2.70;1.43;;;20.70;99.90;;;;;;5286511;26;20542;-60
2024/04/08 12:08:38;;;;;;;1.87;1.50;;;20.80;99.90;;;;;;5288973;26;20521;-62
2024/04/08 12:11:13;;;;;;;2.77;1.57;;;20.80;99.90;;;;;;5290190;26;20624;-62
2024/04/08 12:13:40;;;;;;;2.27;1.60;;;20.80;99.90;;;;;;5289613;26;20481;-61
2024/04/08 12:16:12;;;;;;;2.60;1.47;;;20.90;99.90;;;;;;5291244;26;20928;-61
2024/04/08 12:18:40;;;;;;;3.00;1.43;;;20.90;99.90;;;;;;5289241;26;21100;-60
2024/04/08 12:21:10;;;;;;;2.13;1.20;;;20.80;99.90;;;;;;5291924;26;20588;-61
2024/04/08 12:23:37;;;;;;;2.47;1.20;;;20.80;99.90;;;;;;5292177;26;20538;-62
2024/04/08 12:26:07;;;;;;;2.90;1.60;;;20.80;99.90;;;;;;5295751;26;20527;-62
2024/04/08 12:28:37;;;;;;;2.10;1.60;;;20.90;99.90;;;;;;5301465;26;20642;-62
2024/04/08 12:31:07;;;;;;;3.10;1.73;;;20.90;99.90;;;;;;5293763;26;22841;-62
2024/04/08 12:33:34;;;;;;;2.43;1.30;;;21.00;99.90;;;;;;5293409;26;20494;-61
2024/04/08 12:36:04;;;;;;;2.57;1.97;;;21.20;99.90;;;;;;5294901;26;20487;-62
2024/04/08 12:38:31;;;;;;;4.53;1.70;;;21.30;99.90;;;;;;5297621;26;20495;-62
2024/04/08 12:41:01;;;;;;;2.03;1.83;;;21.30;99.90;;;;;;5285087;26;20486;-62
2024/04/08 12:43:28;;;;;;;2.20;1.80;;;21.20;99.90;;;;;;5289970;26;20598;-62
2024/04/08 12:46:18;;;;;;;2.37;1.80;;;21.10;99.90;;;;;;5294764;26;20867;-62
2024/04/08 12:48:45;;;;;;;4.33;2.20;;;20.90;99.90;;;;;;5294249;26;20467;-62
2024/04/08 12:51:15;;;;;;;2.40;1.77;;;20.80;99.90;;;;;;5291606;26;20479;-62
2024/04/08 12:53:44;;;;;;;3.57;1.47;;;20.70;99.90;;;;;;5279363;26;21350;-62
2024/04/08 12:56:14;;;;;;;2.20;1.30;;;20.50;99.90;;;;;;5287220;26;20499;-62